sensor_id;sensor_type;location;lat;lon;timestamp;P1;durP1;ratioP1;P2;durP2;ratioP2
62693;SDS011;48759;52.544;13.418;2023-02-19T00:00:57;3.23;;;2.03;;
62693;SDS011;48759;52.544;13.418;2023-02-19T00:03:25;4.30;;;2.80;;
62693;SDS011;48759;52.544;13.418;2023-02-19T00:05:53;2.33;;;2.23;;
62693;SDS011;48759;52.544;13.418;2023-02-19T00:08:19;4.07;;;2.97;;
62693;SDS011;48759;52.544;13.418;2023-02-19T00:10:46;2.60;;;2.40;;
62693;SDS011;48759;52.544;13.418;2023-02-19T00:13:13;4.60;;;3.00;;
62693;SDS011;48759;52.544;13.418;2023-02-19T00:15:39;3.53;;;2.70;;
62693;SDS011;48759;52.544;13.418;2023-02-19T00:18:06;2.23;;;2.03;;
62693;SDS011;48759;52.544;13.418;2023-02-19T00:20:33;3.13;;;2.70;;
62693;SDS011;48759;52.544;13.418;2023-02-19T00:23:01;3.57;;;2.03;;
62693;SDS011;48759;52.544;13.418;2023-02-19T00:25:27;4.13;;;2.30;;
62693;SDS011;48759;52.544;13.418;2023-02-19T00:27:54;2.60;;;2.40;;
62693;SDS011;48759;52.544;13.418;2023-02-19T00:30:21;5.00;;;2.60;;
62693;SDS011;48759;52.544;13.418;2023-02-19T00:32:49;2.60;;;2.37;;
62693;SDS011;48759;52.544;13.418;2023-02-19T00:35:16;3.40;;;2.60;;
62693;SDS011;48759;52.544;13.418;2023-02-19T00:37:43;3.63;;;2.20;;
62693;SDS011;48759;52.544;13.418;2023-02-19T00:40:11;4.70;;;3.03;;
62693;SDS011;48759;52.544;13.418;2023-02-19T00:42:37;2.30;;;2.10;;
62693;SDS011;48759;52.544;13.418;2023-02-19T00:45:04;9.40;;;2.30;;
62693;SDS011;48759;52.544;13.418;2023-02-19T00:47:32;3.83;;;2.47;;
62693;SDS011;48759;52.544;13.418;2023-02-19T00:49:58;3.00;;;2.60;;
62693;SDS011;48759;52.544;13.418;2023-02-19T00:52:25;5.53;;;2.80;;
62693;SDS011;48759;52.544;13.418;2023-02-19T00:54:52;3.40;;;2.00;;
62693;SDS011;48759;52.544;13.418;2023-02-19T00:57:20;3.33;;;2.00;;
62693;SDS011;48759;52.544;13.418;2023-02-19T00:59:46;2.30;;;2.20;;
62693;SDS011;48759;52.544;13.418;2023-02-19T01:02:13;2.53;;;2.33;;
62693;SDS011;48759;52.544;13.418;2023-02-19T01:04:43;2.70;;;2.50;;
62693;SDS011;48759;52.544;13.418;2023-02-19T01:07:10;4.77;;;2.43;;
62693;SDS011;48759;52.544;13.418;2023-02-19T01:09:37;2.80;;;2.60;;
62693;SDS011;48759;52.544;13.418;2023-02-19T01:12:04;3.30;;;3.00;;
62693;SDS011;48759;52.544;13.418;2023-02-19T01:14:32;3.10;;;2.80;;
62693;SDS011;48759;52.544;13.418;2023-02-19T01:16:59;2.50;;;2.30;;
62693;SDS011;48759;52.544;13.418;2023-02-19T01:19:26;3.77;;;2.60;;
62693;SDS011;48759;52.544;13.418;2023-02-19T01:21:52;3.20;;;2.77;;
62693;SDS011;48759;52.544;13.418;2023-02-19T01:24:19;5.60;;;2.90;;
62693;SDS011;48759;52.544;13.418;2023-02-19T01:26:45;3.10;;;2.80;;
62693;SDS011;48759;52.544;13.418;2023-02-19T01:29:12;4.40;;;3.10;;
62693;SDS011;48759;52.544;13.418;2023-02-19T01:31:40;3.23;;;2.93;;
62693;SDS011;48759;52.544;13.418;2023-02-19T01:34:08;5.77;;;3.37;;
62693;SDS011;48759;52.544;13.418;2023-02-19T01:36:36;4.27;;;3.00;;
62693;SDS011;48759;52.544;13.418;2023-02-19T01:39:03;4.40;;;3.10;;
62693;SDS011;48759;52.544;13.418;2023-02-19T01:41:33;3.70;;;3.00;;
62693;SDS011;48759;52.544;13.418;2023-02-19T01:44:03;3.20;;;3.00;;
62693;SDS011;48759;52.544;13.418;2023-02-19T01:46:33;3.20;;;2.90;;
62693;SDS011;48759;52.544;13.418;2023-02-19T01:49:03;4.50;;;3.23;;
62693;SDS011;48759;52.544;13.418;2023-02-19T01:51:35;5.20;;;3.80;;
62693;SDS011;48759;52.544;13.418;2023-02-19T01:54:04;6.57;;;3.87;;
62693;SDS011;48759;52.544;13.418;2023-02-19T01:56:34;4.40;;;3.83;;
62693;SDS011;48759;52.544;13.418;2023-02-19T01:59:05;8.10;;;4.43;;
62693;SDS011;48759;52.544;13.418;2023-02-19T02:01:32;5.50;;;3.87;;
62693;SDS011;48759;52.544;13.418;2023-02-19T02:04:00;5.83;;;4.07;;
62693;SDS011;48759;52.544;13.418;2023-02-19T02:06:28;6.00;;;4.33;;
62693;SDS011;48759;52.544;13.418;2023-02-19T02:08:58;5.13;;;4.63;;
62693;SDS011;48759;52.544;13.418;2023-02-19T02:11:44;5.37;;;4.60;;
62693;SDS011;48759;52.544;13.418;2023-02-19T02:14:13;5.87;;;4.53;;
62693;SDS011;48759;52.544;13.418;2023-02-19T02:16:42;8.90;;;5.10;;
62693;SDS011;48759;52.544;13.418;2023-02-19T02:19:24;6.00;;;4.67;;
62693;SDS011;48759;52.544;13.418;2023-02-19T02:22:07;6.97;;;5.37;;
62693;SDS011;48759;52.544;13.418;2023-02-19T02:27:56;10.17;;;4.53;;
62693;SDS011;48759;52.544;13.418;2023-02-19T02:30:43;5.83;;;4.67;;
62693;SDS011;48759;52.544;13.418;2023-02-19T02:33:14;7.50;;;5.63;;
62693;SDS011;48759;52.544;13.418;2023-02-19T02:35:47;6.27;;;4.93;;
62693;SDS011;48759;52.544;13.418;2023-02-19T02:38:17;5.50;;;4.80;;
62693;SDS011;48759;52.544;13.418;2023-02-19T02:40:47;7.23;;;5.33;;
62693;SDS011;48759;52.544;13.418;2023-02-19T02:43:14;10.93;;;5.10;;
62693;SDS011;48759;52.544;13.418;2023-02-19T02:45:41;5.00;;;4.33;;
62693;SDS011;48759;52.544;13.418;2023-02-19T02:48:11;7.10;;;4.20;;
62693;SDS011;48759;52.544;13.418;2023-02-19T02:50:45;6.80;;;4.00;;
62693;SDS011;48759;52.544;13.418;2023-02-19T02:53:17;6.77;;;3.50;;
62693;SDS011;48759;52.544;13.418;2023-02-19T02:56:04;9.70;;;4.03;;
62693;SDS011;48759;52.544;13.418;2023-02-19T02:58:33;6.43;;;3.70;;
62693;SDS011;48759;52.544;13.418;2023-02-19T03:01:01;8.33;;;4.50;;
62693;SDS011;48759;52.544;13.418;2023-02-19T03:03:52;7.90;;;4.17;;
62693;SDS011;48759;52.544;13.418;2023-02-19T03:06:22;5.60;;;4.40;;
62693;SDS011;48759;52.544;13.418;2023-02-19T03:08:54;6.80;;;4.07;;
62693;SDS011;48759;52.544;13.418;2023-02-19T03:11:24;4.43;;;4.03;;
62693;SDS011;48759;52.544;13.418;2023-02-19T03:14:10;7.47;;;4.00;;
62693;SDS011;48759;52.544;13.418;2023-02-19T03:16:59;9.10;;;5.00;;
62693;SDS011;48759;52.544;13.418;2023-02-19T03:19:49;11.63;;;4.80;;
62693;SDS011;48759;52.544;13.418;2023-02-19T03:22:22;10.30;;;5.07;;
62693;SDS011;48759;52.544;13.418;2023-02-19T03:24:53;11.10;;;7.07;;
62693;SDS011;48759;52.544;13.418;2023-02-19T03:27:42;11.33;;;5.50;;
62693;SDS011;48759;52.544;13.418;2023-02-19T03:30:14;11.37;;;5.60;;
62693;SDS011;48759;52.544;13.418;2023-02-19T03:32:45;8.30;;;4.80;;
62693;SDS011;48759;52.544;13.418;2023-02-19T03:35:17;8.30;;;5.47;;
62693;SDS011;48759;52.544;13.418;2023-02-19T03:37:48;6.90;;;5.37;;
62693;SDS011;48759;52.544;13.418;2023-02-19T03:40:19;6.00;;;4.20;;
62693;SDS011;48759;52.544;13.418;2023-02-19T03:42:53;4.80;;;3.33;;
62693;SDS011;48759;52.544;13.418;2023-02-19T03:45:30;7.67;;;3.20;;
62693;SDS011;48759;52.544;13.418;2023-02-19T03:48:06;15.40;;;2.80;;
62693;SDS011;48759;52.544;13.418;2023-02-19T03:50:46;5.37;;;2.80;;
62693;SDS011;48759;52.544;13.418;2023-02-19T03:53:19;8.87;;;3.50;;
62693;SDS011;48759;52.544;13.418;2023-02-19T03:55:53;7.17;;;3.80;;
62693;SDS011;48759;52.544;13.418;2023-02-19T03:58:31;8.63;;;3.30;;
62693;SDS011;48759;52.544;13.418;2023-02-19T04:01:05;6.33;;;3.07;;
62693;SDS011;48759;52.544;13.418;2023-02-19T04:03:36;5.30;;;3.83;;
62693;SDS011;48759;52.544;13.418;2023-02-19T04:06:10;3.83;;;2.80;;
62693;SDS011;48759;52.544;13.418;2023-02-19T04:08:39;5.83;;;3.00;;
62693;SDS011;48759;52.544;13.418;2023-02-19T04:11:11;4.70;;;3.33;;
62693;SDS011;48759;52.544;13.418;2023-02-19T04:13:40;10.37;;;3.40;;
62693;SDS011;48759;52.544;13.418;2023-02-19T04:16:12;9.10;;;3.83;;
62693;SDS011;48759;52.544;13.418;2023-02-19T04:18:45;7.57;;;3.77;;
62693;SDS011;48759;52.544;13.418;2023-02-19T04:21:17;7.33;;;2.60;;
62693;SDS011;48759;52.544;13.418;2023-02-19T04:23:45;9.23;;;3.07;;
62693;SDS011;48759;52.544;13.418;2023-02-19T04:26:13;3.80;;;2.53;;
62693;SDS011;48759;52.544;13.418;2023-02-19T04:28:42;5.40;;;3.03;;
62693;SDS011;48759;52.544;13.418;2023-02-19T04:31:09;11.33;;;3.00;;
62693;SDS011;48759;52.544;13.418;2023-02-19T04:33:36;6.80;;;2.47;;
62693;SDS011;48759;52.544;13.418;2023-02-19T04:36:03;4.17;;;2.63;;
62693;SDS011;48759;52.544;13.418;2023-02-19T04:38:31;7.57;;;2.53;;
62693;SDS011;48759;52.544;13.418;2023-02-19T04:40:58;4.23;;;2.73;;
62693;SDS011;48759;52.544;13.418;2023-02-19T04:43:24;9.97;;;3.30;;
62693;SDS011;48759;52.544;13.418;2023-02-19T04:45:51;8.97;;;2.80;;
62693;SDS011;48759;52.544;13.418;2023-02-19T04:48:18;8.73;;;2.83;;
62693;SDS011;48759;52.544;13.418;2023-02-19T04:50:46;4.97;;;3.00;;
62693;SDS011;48759;52.544;13.418;2023-02-19T04:53:13;7.30;;;3.10;;
62693;SDS011;48759;52.544;13.418;2023-02-19T04:55:41;6.30;;;3.50;;
62693;SDS011;48759;52.544;13.418;2023-02-19T04:58:08;7.03;;;3.50;;
62693;SDS011;48759;52.544;13.418;2023-02-19T05:00:35;8.90;;;3.40;;
62693;SDS011;48759;52.544;13.418;2023-02-19T05:03:01;6.80;;;3.07;;
62693;SDS011;48759;52.544;13.418;2023-02-19T05:05:28;10.20;;;3.47;;
62693;SDS011;48759;52.544;13.418;2023-02-19T05:07:55;8.60;;;3.20;;
62693;SDS011;48759;52.544;13.418;2023-02-19T05:10:22;5.80;;;3.73;;
62693;SDS011;48759;52.544;13.418;2023-02-19T05:12:50;5.47;;;3.87;;
62693;SDS011;48759;52.544;13.418;2023-02-19T05:15:17;14.73;;;4.13;;
62693;SDS011;48759;52.544;13.418;2023-02-19T05:17:43;6.80;;;3.97;;
62693;SDS011;48759;52.544;13.418;2023-02-19T05:20:10;4.30;;;3.67;;
62693;SDS011;48759;52.544;13.418;2023-02-19T05:22:37;8.37;;;3.70;;
62693;SDS011;48759;52.544;13.418;2023-02-19T05:25:03;8.40;;;3.40;;
62693;SDS011;48759;52.544;13.418;2023-02-19T05:27:30;8.47;;;4.07;;
62693;SDS011;48759;52.544;13.418;2023-02-19T05:29:59;9.87;;;4.10;;
62693;SDS011;48759;52.544;13.418;2023-02-19T05:32:25;5.73;;;3.63;;
62693;SDS011;48759;52.544;13.418;2023-02-19T05:34:52;7.60;;;3.33;;
62693;SDS011;48759;52.544;13.418;2023-02-19T05:37:18;4.10;;;2.97;;
62693;SDS011;48759;52.544;13.418;2023-02-19T05:39:45;7.00;;;3.33;;
62693;SDS011;48759;52.544;13.418;2023-02-19T05:42:13;7.07;;;3.30;;
62693;SDS011;48759;52.544;13.418;2023-02-19T05:44:40;8.87;;;3.50;;
62693;SDS011;48759;52.544;13.418;2023-02-19T05:47:08;7.93;;;3.60;;
62693;SDS011;48759;52.544;13.418;2023-02-19T05:49:35;9.70;;;3.70;;
62693;SDS011;48759;52.544;13.418;2023-02-19T05:52:02;10.30;;;4.17;;
62693;SDS011;48759;52.544;13.418;2023-02-19T05:54:29;10.07;;;3.20;;
62693;SDS011;48759;52.544;13.418;2023-02-19T05:56:56;4.53;;;3.07;;
62693;SDS011;48759;52.544;13.418;2023-02-19T05:59:23;5.10;;;3.13;;
62693;SDS011;48759;52.544;13.418;2023-02-19T06:01:52;4.10;;;2.90;;
62693;SDS011;48759;52.544;13.418;2023-02-19T06:04:20;4.03;;;2.80;;
62693;SDS011;48759;52.544;13.418;2023-02-19T06:06:47;10.00;;;3.40;;
62693;SDS011;48759;52.544;13.418;2023-02-19T06:09:14;4.60;;;2.83;;
62693;SDS011;48759;52.544;13.418;2023-02-19T06:11:41;6.60;;;3.33;;
62693;SDS011;48759;52.544;13.418;2023-02-19T06:14:09;10.57;;;2.63;;
62693;SDS011;48759;52.544;13.418;2023-02-19T06:16:37;6.60;;;2.90;;
62693;SDS011;48759;52.544;13.418;2023-02-19T06:19:03;4.10;;;2.63;;
62693;SDS011;48759;52.544;13.418;2023-02-19T06:21:31;5.27;;;2.90;;
62693;SDS011;48759;52.544;13.418;2023-02-19T06:23:58;4.27;;;2.60;;
62693;SDS011;48759;52.544;13.418;2023-02-19T06:26:29;3.53;;;2.47;;
62693;SDS011;48759;52.544;13.418;2023-02-19T06:28:56;8.43;;;3.20;;
62693;SDS011;48759;52.544;13.418;2023-02-19T06:31:23;5.03;;;2.40;;
62693;SDS011;48759;52.544;13.418;2023-02-19T06:33:50;9.80;;;2.30;;
62693;SDS011;48759;52.544;13.418;2023-02-19T06:36:17;10.53;;;3.13;;
62693;SDS011;48759;52.544;13.418;2023-02-19T06:38:46;4.80;;;2.27;;
62693;SDS011;48759;52.544;13.418;2023-02-19T06:41:13;5.60;;;3.03;;
62693;SDS011;48759;52.544;13.418;2023-02-19T06:43:40;7.90;;;2.60;;
62693;SDS011;48759;52.544;13.418;2023-02-19T06:46:07;3.03;;;2.83;;
62693;SDS011;48759;52.544;13.418;2023-02-19T06:48:35;7.23;;;2.50;;
62693;SDS011;48759;52.544;13.418;2023-02-19T06:51:05;7.90;;;2.77;;
62693;SDS011;48759;52.544;13.418;2023-02-19T06:53:32;9.20;;;2.60;;
62693;SDS011;48759;52.544;13.418;2023-02-19T06:56:00;6.53;;;2.90;;
62693;SDS011;48759;52.544;13.418;2023-02-19T06:58:29;4.20;;;2.60;;
62693;SDS011;48759;52.544;13.418;2023-02-19T07:00:56;3.00;;;2.43;;
62693;SDS011;48759;52.544;13.418;2023-02-19T07:03:22;3.90;;;2.40;;
62693;SDS011;48759;52.544;13.418;2023-02-19T07:05:50;7.83;;;2.40;;
62693;SDS011;48759;52.544;13.418;2023-02-19T07:08:17;5.20;;;2.23;;
62693;SDS011;48759;52.544;13.418;2023-02-19T07:10:43;8.77;;;2.20;;
62693;SDS011;48759;52.544;13.418;2023-02-19T07:13:12;3.00;;;2.20;;
62693;SDS011;48759;52.544;13.418;2023-02-19T07:15:39;3.10;;;2.37;;
62693;SDS011;48759;52.544;13.418;2023-02-19T07:18:05;5.43;;;2.77;;
62693;SDS011;48759;52.544;13.418;2023-02-19T07:20:34;5.60;;;2.50;;
62693;SDS011;48759;52.544;13.418;2023-02-19T07:23:01;4.23;;;2.10;;
62693;SDS011;48759;52.544;13.418;2023-02-19T07:25:28;7.10;;;2.87;;
62693;SDS011;48759;52.544;13.418;2023-02-19T07:27:55;4.23;;;2.73;;
62693;SDS011;48759;52.544;13.418;2023-02-19T07:30:24;5.47;;;2.70;;
62693;SDS011;48759;52.544;13.418;2023-02-19T07:32:51;8.63;;;3.40;;
62693;SDS011;48759;52.544;13.418;2023-02-19T07:35:17;11.13;;;3.10;;
62693;SDS011;48759;52.544;13.418;2023-02-19T07:37:52;4.10;;;2.57;;
62693;SDS011;48759;52.544;13.418;2023-02-19T07:40:19;2.63;;;2.40;;
62693;SDS011;48759;52.544;13.418;2023-02-19T07:42:45;3.50;;;3.20;;
62693;SDS011;48759;52.544;13.418;2023-02-19T07:45:12;6.40;;;2.80;;
62693;SDS011;48759;52.544;13.418;2023-02-19T07:47:40;9.83;;;2.53;;
62693;SDS011;48759;52.544;13.418;2023-02-19T07:50:07;6.90;;;2.90;;
62693;SDS011;48759;52.544;13.418;2023-02-19T07:52:34;14.43;;;3.10;;
62693;SDS011;48759;52.544;13.418;2023-02-19T07:55:00;4.93;;;3.23;;
62693;SDS011;48759;52.544;13.418;2023-02-19T07:57:29;7.50;;;2.80;;
62693;SDS011;48759;52.544;13.418;2023-02-19T07:59:56;8.53;;;3.40;;
62693;SDS011;48759;52.544;13.418;2023-02-19T08:02:24;5.00;;;3.33;;
62693;SDS011;48759;52.544;13.418;2023-02-19T08:05:09;5.50;;;2.37;;
62693;SDS011;48759;52.544;13.418;2023-02-19T08:07:37;3.90;;;2.83;;
62693;SDS011;48759;52.544;13.418;2023-02-19T08:10:04;6.10;;;2.30;;
62693;SDS011;48759;52.544;13.418;2023-02-19T08:12:55;6.87;;;2.50;;
62693;SDS011;48759;52.544;13.418;2023-02-19T08:15:40;4.30;;;2.87;;
62693;SDS011;48759;52.544;13.418;2023-02-19T08:18:08;4.67;;;2.93;;
62693;SDS011;48759;52.544;13.418;2023-02-19T08:20:36;5.40;;;3.10;;
62693;SDS011;48759;52.544;13.418;2023-02-19T08:23:03;5.80;;;3.00;;
62693;SDS011;48759;52.544;13.418;2023-02-19T08:25:30;9.33;;;3.37;;
62693;SDS011;48759;52.544;13.418;2023-02-19T08:27:57;7.03;;;2.93;;
62693;SDS011;48759;52.544;13.418;2023-02-19T08:30:25;4.30;;;2.23;;
62693;SDS011;48759;52.544;13.418;2023-02-19T08:32:52;3.97;;;2.40;;
62693;SDS011;48759;52.544;13.418;2023-02-19T08:35:20;6.90;;;2.80;;
62693;SDS011;48759;52.544;13.418;2023-02-19T08:37:48;5.40;;;2.10;;
62693;SDS011;48759;52.544;13.418;2023-02-19T08:40:15;2.50;;;2.30;;
62693;SDS011;48759;52.544;13.418;2023-02-19T08:42:42;5.00;;;2.30;;
62693;SDS011;48759;52.544;13.418;2023-02-19T08:45:09;5.03;;;2.27;;
62693;SDS011;48759;52.544;13.418;2023-02-19T08:47:36;3.87;;;1.87;;
62693;SDS011;48759;52.544;13.418;2023-02-19T08:50:03;7.63;;;2.73;;
62693;SDS011;48759;52.544;13.418;2023-02-19T08:52:30;6.83;;;2.23;;
62693;SDS011;48759;52.544;13.418;2023-02-19T08:54:58;8.10;;;2.60;;
62693;SDS011;48759;52.544;13.418;2023-02-19T08:57:25;8.60;;;2.67;;
62693;SDS011;48759;52.544;13.418;2023-02-19T08:59:53;5.40;;;1.80;;
62693;SDS011;48759;52.544;13.418;2023-02-19T09:02:20;5.87;;;2.23;;
62693;SDS011;48759;52.544;13.418;2023-02-19T09:04:46;5.60;;;2.30;;
62693;SDS011;48759;52.544;13.418;2023-02-19T09:07:13;3.97;;;2.10;;
62693;SDS011;48759;52.544;13.418;2023-02-19T09:09:39;3.60;;;2.10;;
62693;SDS011;48759;52.544;13.418;2023-02-19T09:12:08;3.33;;;1.80;;
62693;SDS011;48759;52.544;13.418;2023-02-19T09:14:36;6.23;;;2.10;;
62693;SDS011;48759;52.544;13.418;2023-02-19T09:17:04;4.50;;;2.30;;
62693;SDS011;48759;52.544;13.418;2023-02-19T09:19:32;5.47;;;1.60;;
62693;SDS011;48759;52.544;13.418;2023-02-19T09:21:59;4.50;;;2.00;;
62693;SDS011;48759;52.544;13.418;2023-02-19T09:24:26;4.77;;;2.47;;
62693;SDS011;48759;52.544;13.418;2023-02-19T09:26:53;15.57;;;2.83;;
62693;SDS011;48759;52.544;13.418;2023-02-19T09:29:22;7.03;;;2.93;;
62693;SDS011;48759;52.544;13.418;2023-02-19T09:31:50;6.20;;;2.27;;
62693;SDS011;48759;52.544;13.418;2023-02-19T09:34:17;2.77;;;1.97;;
62693;SDS011;48759;52.544;13.418;2023-02-19T09:36:43;8.23;;;2.53;;
62693;SDS011;48759;52.544;13.418;2023-02-19T09:39:10;8.53;;;2.63;;
62693;SDS011;48759;52.544;13.418;2023-02-19T09:41:37;10.17;;;2.50;;
62693;SDS011;48759;52.544;13.418;2023-02-19T09:44:10;3.60;;;1.77;;
62693;SDS011;48759;52.544;13.418;2023-02-19T09:46:44;7.10;;;2.50;;
62693;SDS011;48759;52.544;13.418;2023-02-19T09:49:14;7.67;;;2.37;;
62693;SDS011;48759;52.544;13.418;2023-02-19T09:51:44;11.73;;;2.03;;
62693;SDS011;48759;52.544;13.418;2023-02-19T09:54:16;5.70;;;2.00;;
62693;SDS011;48759;52.544;13.418;2023-02-19T09:56:47;5.07;;;2.20;;
62693;SDS011;48759;52.544;13.418;2023-02-19T09:59:15;3.03;;;1.40;;
62693;SDS011;48759;52.544;13.418;2023-02-19T10:01:47;4.40;;;1.80;;
62693;SDS011;48759;52.544;13.418;2023-02-19T10:04:18;7.43;;;1.83;;
62693;SDS011;48759;52.544;13.418;2023-02-19T10:06:45;6.50;;;2.17;;
62693;SDS011;48759;52.544;13.418;2023-02-19T10:09:17;3.83;;;2.03;;
62693;SDS011;48759;52.544;13.418;2023-02-19T10:11:47;5.20;;;1.93;;
62693;SDS011;48759;52.544;13.418;2023-02-19T10:14:16;3.70;;;1.57;;
62693;SDS011;48759;52.544;13.418;2023-02-19T10:16:51;8.30;;;1.90;;
62693;SDS011;48759;52.544;13.418;2023-02-19T10:19:18;2.20;;;1.40;;
62693;SDS011;48759;52.544;13.418;2023-02-19T10:21:45;3.93;;;1.80;;
62693;SDS011;48759;52.544;13.418;2023-02-19T10:24:13;6.80;;;1.77;;
62693;SDS011;48759;52.544;13.418;2023-02-19T10:26:45;9.07;;;2.27;;
62693;SDS011;48759;52.544;13.418;2023-02-19T10:29:12;6.57;;;2.23;;
62693;SDS011;48759;52.544;13.418;2023-02-19T10:31:39;6.83;;;2.10;;
62693;SDS011;48759;52.544;13.418;2023-02-19T10:34:15;7.30;;;1.97;;
62693;SDS011;48759;52.544;13.418;2023-02-19T10:36:44;6.63;;;1.80;;
62693;SDS011;48759;52.544;13.418;2023-02-19T10:39:24;5.97;;;1.70;;
62693;SDS011;48759;52.544;13.418;2023-02-19T10:42:02;5.60;;;1.77;;
62693;SDS011;48759;52.544;13.418;2023-02-19T10:44:30;11.53;;;2.23;;
62693;SDS011;48759;52.544;13.418;2023-02-19T10:47:03;2.83;;;1.40;;
62693;SDS011;48759;52.544;13.418;2023-02-19T10:49:32;3.97;;;1.17;;
62693;SDS011;48759;52.544;13.418;2023-02-19T10:52:09;8.83;;;2.07;;
62693;SDS011;48759;52.544;13.418;2023-02-19T10:54:41;5.87;;;1.60;;
62693;SDS011;48759;52.544;13.418;2023-02-19T10:57:15;8.80;;;2.00;;
62693;SDS011;48759;52.544;13.418;2023-02-19T10:59:54;6.77;;;1.70;;
62693;SDS011;48759;52.544;13.418;2023-02-19T11:02:23;6.10;;;1.93;;
62693;SDS011;48759;52.544;13.418;2023-02-19T11:07:45;4.07;;;1.67;;
62693;SDS011;48759;52.544;13.418;2023-02-19T11:10:20;8.23;;;2.00;;
62693;SDS011;48759;52.544;13.418;2023-02-19T11:12:53;6.73;;;2.03;;
62693;SDS011;48759;52.544;13.418;2023-02-19T11:15:24;5.73;;;1.80;;
62693;SDS011;48759;52.544;13.418;2023-02-19T11:17:55;9.40;;;1.80;;
62693;SDS011;48759;52.544;13.418;2023-02-19T11:20:25;5.47;;;1.50;;
62693;SDS011;48759;52.544;13.418;2023-02-19T11:22:56;5.73;;;1.50;;
62693;SDS011;48759;52.544;13.418;2023-02-19T11:25:35;7.67;;;1.73;;
62693;SDS011;48759;52.544;13.418;2023-02-19T11:28:22;2.40;;;1.63;;
62693;SDS011;48759;52.544;13.418;2023-02-19T11:30:55;6.23;;;2.17;;
62693;SDS011;48759;52.544;13.418;2023-02-19T11:33:42;3.00;;;1.80;;
62693;SDS011;48759;52.544;13.418;2023-02-19T11:36:32;3.00;;;1.70;;
62693;SDS011;48759;52.544;13.418;2023-02-19T11:39:18;3.17;;;1.50;;
62693;SDS011;48759;52.544;13.418;2023-02-19T11:41:56;2.40;;;1.30;;
62693;SDS011;48759;52.544;13.418;2023-02-19T11:44:36;3.43;;;1.50;;
62693;SDS011;48759;52.544;13.418;2023-02-19T11:50:21;1.80;;;1.43;;
62693;SDS011;48759;52.544;13.418;2023-02-19T11:52:58;4.77;;;1.50;;
62693;SDS011;48759;52.544;13.418;2023-02-19T11:55:42;5.43;;;1.33;;
62693;SDS011;48759;52.544;13.418;2023-02-19T12:01:18;4.57;;;2.00;;
62693;SDS011;48759;52.544;13.418;2023-02-19T12:03:53;2.70;;;1.33;;
62693;SDS011;48759;52.544;13.418;2023-02-19T12:06:29;5.73;;;2.83;;
62693;SDS011;48759;52.544;13.418;2023-02-19T12:09:10;5.10;;;1.50;;
62693;SDS011;48759;52.544;13.418;2023-02-19T12:11:49;5.17;;;1.43;;
62693;SDS011;48759;52.544;13.418;2023-02-19T12:17:23;3.03;;;1.43;;
62693;SDS011;48759;52.544;13.418;2023-02-19T12:20:08;4.63;;;1.83;;
62693;SDS011;48759;52.544;13.418;2023-02-19T12:22:43;5.77;;;1.70;;
62693;SDS011;48759;52.544;13.418;2023-02-19T12:25:32;3.87;;;2.10;;
62693;SDS011;48759;52.544;13.418;2023-02-19T12:28:19;3.97;;;1.70;;
62693;SDS011;48759;52.544;13.418;2023-02-19T12:31:01;2.83;;;1.10;;
62693;SDS011;48759;52.544;13.418;2023-02-19T12:33:49;7.73;;;1.67;;
62693;SDS011;48759;52.544;13.418;2023-02-19T12:36:30;2.90;;;1.30;;
62693;SDS011;48759;52.544;13.418;2023-02-19T12:39:04;3.13;;;1.43;;
62693;SDS011;48759;52.544;13.418;2023-02-19T12:41:43;2.37;;;2.17;;
62693;SDS011;48759;52.544;13.418;2023-02-19T12:44:18;6.30;;;1.90;;
62693;SDS011;48759;52.544;13.418;2023-02-19T12:46:52;2.50;;;1.37;;
62693;SDS011;48759;52.544;13.418;2023-02-19T12:49:24;3.03;;;1.33;;
62693;SDS011;48759;52.544;13.418;2023-02-19T12:51:56;6.33;;;1.60;;
62693;SDS011;48759;52.544;13.418;2023-02-19T12:54:27;4.20;;;1.30;;
62693;SDS011;48759;52.544;13.418;2023-02-19T12:57:01;5.77;;;1.47;;
62693;SDS011;48759;52.544;13.418;2023-02-19T12:59:30;4.13;;;1.87;;
62693;SDS011;48759;52.544;13.418;2023-02-19T13:02:04;6.93;;;1.43;;
62693;SDS011;48759;52.544;13.418;2023-02-19T13:04:41;3.27;;;1.47;;
62693;SDS011;48759;52.544;13.418;2023-02-19T13:07:13;3.27;;;1.77;;
62693;SDS011;48759;52.544;13.418;2023-02-19T13:09:43;5.63;;;1.70;;
62693;SDS011;48759;52.544;13.418;2023-02-19T13:12:19;3.63;;;1.50;;
62693;SDS011;48759;52.544;13.418;2023-02-19T13:14:50;3.30;;;1.43;;
62693;SDS011;48759;52.544;13.418;2023-02-19T13:17:22;1.63;;;1.20;;
62693;SDS011;48759;52.544;13.418;2023-02-19T13:19:53;7.73;;;1.70;;
62693;SDS011;48759;52.544;13.418;2023-02-19T13:22:33;2.20;;;1.33;;
62693;SDS011;48759;52.544;13.418;2023-02-19T13:25:36;4.13;;;1.40;;
62693;SDS011;48759;52.544;13.418;2023-02-19T13:28:23;3.37;;;1.20;;
62693;SDS011;48759;52.544;13.418;2023-02-19T13:34:35;3.90;;;1.50;;
62693;SDS011;48759;52.544;13.418;2023-02-19T13:40:32;4.73;;;1.50;;
62693;SDS011;48759;52.544;13.418;2023-02-19T13:46:19;2.57;;;1.10;;
62693;SDS011;48759;52.544;13.418;2023-02-19T13:48:45;6.40;;;1.60;;
62693;SDS011;48759;52.544;13.418;2023-02-19T13:54:19;4.30;;;1.23;;
62693;SDS011;48759;52.544;13.418;2023-02-19T13:56:48;3.13;;;1.43;;
62693;SDS011;48759;52.544;13.418;2023-02-19T13:59:26;4.17;;;1.20;;
62693;SDS011;48759;52.544;13.418;2023-02-19T14:02:08;5.10;;;1.13;;
62693;SDS011;48759;52.544;13.418;2023-02-19T14:04:45;3.40;;;1.30;;
62693;SDS011;48759;52.544;13.418;2023-02-19T14:07:19;1.33;;;1.20;;
62693;SDS011;48759;52.544;13.418;2023-02-19T14:10:03;2.70;;;1.57;;
62693;SDS011;48759;52.544;13.418;2023-02-19T14:12:36;4.77;;;1.50;;
62693;SDS011;48759;52.544;13.418;2023-02-19T14:21:16;2.40;;;1.40;;
62693;SDS011;48759;52.544;13.418;2023-02-19T14:23:50;5.93;;;1.70;;
62693;SDS011;48759;52.544;13.418;2023-02-19T14:26:26;2.43;;;1.13;;
62693;SDS011;48759;52.544;13.418;2023-02-19T14:28:56;6.57;;;1.60;;
62693;SDS011;48759;52.544;13.418;2023-02-19T14:31:29;4.00;;;1.33;;
62693;SDS011;48759;52.544;13.418;2023-02-19T14:34:06;1.53;;;1.37;;
62693;SDS011;48759;52.544;13.418;2023-02-19T14:36:47;6.20;;;1.67;;
62693;SDS011;48759;52.544;13.418;2023-02-19T14:39:18;2.97;;;1.60;;
62693;SDS011;48759;52.544;13.418;2023-02-19T14:41:48;2.50;;;1.20;;
62693;SDS011;48759;52.544;13.418;2023-02-19T14:44:18;1.57;;;1.20;;
62693;SDS011;48759;52.544;13.418;2023-02-19T14:46:53;5.20;;;1.50;;
62693;SDS011;48759;52.544;13.418;2023-02-19T14:49:26;3.50;;;1.77;;
62693;SDS011;48759;52.544;13.418;2023-02-19T14:51:58;3.13;;;1.30;;
62693;SDS011;48759;52.544;13.418;2023-02-19T14:54:32;1.90;;;1.40;;
62693;SDS011;48759;52.544;13.418;2023-02-19T14:57:04;3.00;;;1.50;;
62693;SDS011;48759;52.544;13.418;2023-02-19T14:59:38;3.90;;;1.57;;
62693;SDS011;48759;52.544;13.418;2023-02-19T15:02:13;15.23;;;2.50;;
62693;SDS011;48759;52.544;13.418;2023-02-19T15:04:46;2.10;;;1.40;;
62693;SDS011;48759;52.544;13.418;2023-02-19T15:07:14;6.23;;;1.43;;
62693;SDS011;48759;52.544;13.418;2023-02-19T15:09:45;3.50;;;1.70;;
62693;SDS011;48759;52.544;13.418;2023-02-19T15:12:14;2.63;;;1.90;;
62693;SDS011;48759;52.544;13.418;2023-02-19T15:14:43;4.30;;;1.53;;
62693;SDS011;48759;52.544;13.418;2023-02-19T15:17:12;3.20;;;1.30;;
62693;SDS011;48759;52.544;13.418;2023-02-19T15:19:42;4.40;;;1.40;;
62693;SDS011;48759;52.544;13.418;2023-02-19T15:22:12;2.07;;;1.30;;
62693;SDS011;48759;52.544;13.418;2023-02-19T15:24:44;4.17;;;1.70;;
62693;SDS011;48759;52.544;13.418;2023-02-19T15:27:13;1.57;;;1.20;;
62693;SDS011;48759;52.544;13.418;2023-02-19T15:29:44;1.77;;;1.20;;